Flight Track Log - Related Links

Times and Time Zones

All times are in EDT time to prevent confusion due to time zone crossing. See the LOG6856 flight status page for this flight to view local times or setup timezone preferences in your user account.

Time Position Orientation Groundspeed Altitude Reporting Facility
EDT Latitude Longitude Course Direction KTS MPH feet Rate Location/Type
Fri 09:55:27 AM 57.0296 -7.4593 North 1 1 400  Level FlightAware UK
Fri 09:55:45 AM 57.0399 -7.4580 North 1 1 800 1,167 Climbing FlightAware UK
Fri 09:56:03 AM 57.0470 -7.4453 44° Northeast 1 1 1,100 833 Climbing FlightAware UK
Fri 09:56:21 AM 57.0483 -7.4267 83° East 1 1 1,300 1,000 Climbing FlightAware UK
Fri 09:56:39 AM 57.0413 -7.4129 133° Southeast 1 1 1,700 1,000 Climbing FlightAware UK
Fri 09:56:57 AM 57.0334 -7.4029 145° Southeast 1 1 1,900 833 Climbing FlightAware UK
Fri 09:57:15 AM 57.0251 -7.3946 151° Southeast 1 1 2,200 1,167 Climbing FlightAware UK
Fri 09:57:33 AM 57.0176 -7.3842 143° Southeast 1 1 2,600 1,000 Climbing FlightAware UK
Fri 09:57:51 AM 57.0103 -7.3734 141° Southeast 1 1 2,800 1,000 Climbing FlightAware UK
Fri 09:58:09 AM 57.0034 -7.3611 136° Southeast 1 1 3,200 1,000 Climbing FlightAware UK
Fri 09:58:27 AM 56.9972 -7.3480 131° Southeast 1 1 3,400 833 Climbing FlightAware UK
Fri 09:58:45 AM 56.9911 -7.3348 130° Southeast 1 1 3,700 1,167 Climbing FlightAware UK
Fri 09:59:03 AM 56.9863 -7.3189 119° Southeast 1 1 4,100 833 Climbing FlightAware UK
Fri 09:59:21 AM 56.9804 -7.3039 126° Southeast 1 1 4,200 667 Climbing FlightAware UK
Fri 09:59:39 AM 56.9742 -7.2883 126° Southeast 1 1 4,500 1,000 Climbing FlightAware UK
Fri 09:59:57 AM 56.9663 -7.2751 138° Southeast 1 1 4,800 1,000 Climbing FlightAware UK
Fri 10:00:15 AM 56.9578 -7.2620 140° Southeast 1 1 5,100 667 Climbing FlightAware UK
Fri 10:00:33 AM 56.9504 -7.2461 130° Southeast 1 1 5,200 500 Climbing FlightAware UK
Fri 10:00:51 AM 56.9435 -7.2286 126° Southeast 1 1 5,400 833 Climbing FlightAware UK
Fri 10:01:09 AM 56.9370 -7.2111 124° Southeast 1 1 5,700 833 Climbing FlightAware UK
Fri 10:01:27 AM 56.9310 -7.1920 120° Southeast 1 1 5,900 500 Climbing FlightAware UK
Fri 10:01:45 AM 56.9253 -7.1719 117° Southeast 1 1 6,000 571 Climbing FlightAware UK
Fri 10:02:09 AM 56.9176 -7.1461 119° Southeast 1 1 6,300 857 Climbing FlightAware UK
Fri 10:02:27 AM 56.9115 -7.1273 121° Southeast 1 1 6,600 667 Climbing FlightAware UK
Fri 10:02:45 AM 56.9052 -7.1089 122° Southeast 1 1 6,700 333 Climbing FlightAware UK
Fri 10:03:03 AM 56.8987 -7.0906 123° Southeast 1 1 6,800 500 Climbing FlightAware UK
Fri 10:03:21 AM 56.8923 -7.0715 122° Southeast 1 1 7,000 500 Climbing FlightAware UK
Fri 10:03:39 AM 56.8856 -7.0528 123° Southeast 1 1 7,100 333 Climbing FlightAware UK
Fri 10:03:57 AM 56.8781 -7.0343 127° Southeast 1 1 7,200 500 Climbing FlightAware UK
Fri 10:04:15 AM 56.8707 -7.0154 125° Southeast 1 1 7,400 500 Climbing FlightAware UK
Fri 10:04:33 AM 56.8629 -6.9970 128° Southeast 1 1 7,500 167 Climbing FlightAware UK
Fri 10:04:51 AM 56.8544 -6.9786 130° Southeast 1 1 7,500  Level FlightAware UK
Fri 10:05:09 AM 56.8466 -6.9591 126° Southeast 1 1 7,500  Level FlightAware UK
Fri 10:05:27 AM 56.8383 -6.9384 126° Southeast 1 1 7,500 -167 Level FlightAware UK
Fri 10:05:45 AM 56.8290 -6.9176 129° Southeast 1 1 7,400  Descending FlightAware UK
Fri 10:06:03 AM 56.8212 -6.8969 125° Southeast 1 1 7,500 167 Climbing FlightAware UK
Fri 10:06:21 AM 56.8137 -6.8763 124° Southeast 1 1 7,500  Level FlightAware UK
Fri 10:06:39 AM 56.8068 -6.8553 121° Southeast 1 1 7,500  Level FlightAware UK
Fri 10:06:57 AM 56.8001 -6.8344 120° Southeast 1 1 7,500  Level FlightAware UK
Fri 10:07:15 AM 56.7929 -6.8134 122° Southeast 1 1 7,500  Level FlightAware UK
Fri 10:07:33 AM 56.7858 -6.7921 121° Southeast 1 1 7,500  Level FlightAware UK
Fri 10:07:51 AM 56.7786 -6.7711 122° Southeast 1 1 7,500  Level FlightAware UK
Fri 10:08:09 AM 56.7716 -6.7496 121° Southeast 1 1 7,500  Level FlightAware UK
Fri 10:08:27 AM 56.7645 -6.7284 122° Southeast 1 1 7,500  Level FlightAware UK
Fri 10:08:45 AM 56.7572 -6.7077 123° Southeast 1 1 7,500  Level FlightAware UK
Fri 10:09:03 AM 56.7499 -6.6865 122° Southeast 1 1 7,500  Level FlightAware UK
Fri 10:09:27 AM 56.7395 -6.6593 125° Southeast 1 1 7,500  Level FlightAware UK
Fri 10:09:45 AM 56.7313 -6.6393 127° Southeast 1 1 7,500  Level FlightAware UK
Fri 10:10:03 AM 56.7232 -6.6190 126° Southeast 1 1 7,500  Level FlightAware UK
Fri 10:10:21 AM 56.7152 -6.5983 125° Southeast 1 1 7,500  Level FlightAware UK
Fri 10:10:39 AM 56.7073 -6.5770 124° Southeast 1 1 7,500 333 Level FlightAware UK
Fri 10:10:57 AM 56.6995 -6.5562 124° Southeast 1 1 7,700 500 Climbing FlightAware UK
Fri 10:11:15 AM 56.6919 -6.5358 124° Southeast 1 1 7,800 500 Climbing FlightAware UK
Fri 10:11:33 AM 56.6851 -6.5171 123° Southeast 1 1 8,000 667 Climbing FlightAware UK
Fri 10:11:51 AM 56.6784 -6.4973 121° Southeast 1 1 8,200 667 Climbing FlightAware UK
Fri 10:12:09 AM 56.6720 -6.4774 120° Southeast 1 1 8,400 500 Climbing FlightAware UK
Fri 10:12:27 AM 56.6653 -6.4576 122° Southeast 1 1 8,500 500 Climbing FlightAware UK
Fri 10:12:45 AM 56.6583 -6.4379 123° Southeast 1 1 8,700 667 Climbing FlightAware UK
Fri 10:13:03 AM 56.6519 -6.4182 121° Southeast 1 1 8,900 500 Climbing FlightAware UK
Fri 10:13:21 AM 56.6451 -6.3989 122° Southeast 1 1 9,000 500 Climbing FlightAware UK
Fri 10:13:39 AM 56.6379 -6.3801 125° Southeast 1 1 9,200 500 Climbing FlightAware UK
Fri 10:13:57 AM 56.6306 -6.3613 125° Southeast 1 1 9,300 500 Climbing FlightAware UK
Fri 10:14:15 AM 56.6233 -6.3426 126° Southeast 1 1 9,500 333 Climbing FlightAware UK
Fri 10:14:33 AM 56.6154 -6.3236 127° Southeast 1 1 9,500  Level FlightAware UK
Fri 10:14:51 AM 56.6064 -6.3033 129° Southeast 1 1 9,500  Level FlightAware UK
Fri 10:15:09 AM 56.5979 -6.2829 127° Southeast 1 1 9,500  Level FlightAware UK
Fri 10:15:27 AM 56.5896 -6.2621 126° Southeast 1 1 9,500  Level FlightAware UK
Fri 10:15:45 AM 56.5812 -6.2415 126° Southeast 1 1 9,500  Level FlightAware UK
Fri 10:16:03 AM 56.5729 -6.2204 125° Southeast 1 1 9,500  Level FlightAware UK
Fri 10:16:21 AM 56.5647 -6.1995 126° Southeast 1 1 9,500  Level FlightAware UK
Fri 10:16:39 AM 56.5564 -6.1791 126° Southeast 1 1 9,500  Level FlightAware UK
Fri 10:16:57 AM 56.5481 -6.1587 127° Southeast 1 1 9,500  Level FlightAware UK
Fri 10:17:15 AM 56.5399 -6.1384 126° Southeast 1 1 9,500  Level FlightAware UK
Fri 10:17:33 AM 56.5317 -6.1180 126° Southeast 1 1 9,500  Level FlightAware UK
Fri 10:17:51 AM 56.5235 -6.0974 126° Southeast 1 1 9,500  Level FlightAware UK
Fri 10:18:09 AM 56.5155 -6.0764 125° Southeast 1 1 9,500 -167 Level FlightAware UK
Fri 10:18:27 AM 56.5075 -6.0556 125° Southeast 1 1 9,400  Descending FlightAware UK
Fri 10:18:45 AM 56.4996 -6.0345 124° Southeast 1 1 9,500 167 Climbing FlightAware UK
Fri 10:19:03 AM 56.4917 -6.0131 124° Southeast 1 1 9,500  Level FlightAware UK
Fri 10:19:21 AM 56.4836 -5.9919 124° Southeast 1 1 9,500  Level FlightAware UK
Fri 10:19:39 AM 56.4754 -5.9708 125° Southeast 1 1 9,500  Level FlightAware UK
Fri 10:19:57 AM 56.4671 -5.9498 125° Southeast 1 1 9,500 -167 Level FlightAware UK
Fri 10:20:15 AM 56.4591 -5.9279 124° Southeast 1 1 9,400  Descending FlightAware UK
Fri 10:20:33 AM 56.4513 -5.9060 123° Southeast 1 1 9,500 167 Climbing FlightAware UK
Fri 10:20:51 AM 56.4436 -5.8844 123° Southeast 1 1 9,500  Level FlightAware UK
Fri 10:21:09 AM 56.4360 -5.8627 122° Southeast 1 1 9,500  Level FlightAware UK
Fri 10:21:27 AM 56.4279 -5.8418 125° Southeast 1 1 9,500  Level FlightAware UK
Fri 10:21:45 AM 56.4198 -5.8206 125° Southeast 1 1 9,500  Level FlightAware UK
Fri 10:22:09 AM 56.4093 -5.7921 124° Southeast 1 1 9,500  Level FlightAware UK
Fri 10:22:27 AM 56.4015 -5.7711 124° Southeast 1 1 9,500  Level FlightAware UK
Fri 10:22:45 AM 56.3936 -5.7509 125° Southeast 1 1 9,500  Level FlightAware UK
Fri 10:23:03 AM 56.3860 -5.7306 124° Southeast 1 1 9,500  Level FlightAware UK
Fri 10:23:21 AM 56.3784 -5.7100 124° Southeast 1 1 9,500  Level FlightAware UK
Fri 10:23:39 AM 56.3709 -5.6892 123° Southeast 1 1 9,500  Level FlightAware UK
Fri 10:23:57 AM 56.3631 -5.6686 124° Southeast 1 1 9,500  Level FlightAware UK
Fri 10:24:15 AM 56.3552 -5.6479 124° Southeast 1 1 9,500  Level FlightAware UK
Fri 10:24:33 AM 56.3474 -5.6270 124° Southeast 1 1 9,500  Level FlightAware UK
Fri 10:24:51 AM 56.3398 -5.6059 123° Southeast 1 1 9,500  Level FlightAware UK
Fri 10:25:09 AM 56.3322 -5.5848 123° Southeast 1 1 9,500  Level FlightAware UK
Fri 10:25:27 AM 56.3246 -5.5636 123° Southeast 1 1 9,500  Level FlightAware UK
Fri 10:25:45 AM 56.3152 -5.5443 131° Southeast 1 1 9,500 -500 Level FlightAware UK
Fri 10:26:03 AM 56.3065 -5.5242 128° Southeast 1 1 9,200 -833 Descending FlightAware UK
Fri 10:26:21 AM 56.2977 -5.5012 124° Southeast 1 1 9,000 -667 Descending FlightAware UK
Fri 10:26:39 AM 56.2885 -5.4784 126° Southeast 1 1 8,800 -667 Descending FlightAware UK
Fri 10:26:57 AM 56.2789 -5.4556 127° Southeast 1 1 8,600 -667 Descending FlightAware UK
Fri 10:27:15 AM 56.2694 -5.4328 127° Southeast 1 1 8,400 -667 Descending FlightAware UK
Fri 10:27:33 AM 56.2601 -5.4099 126° Southeast 1 1 8,200 -667 Descending FlightAware UK
Fri 10:27:51 AM 56.2515 -5.3860 123° Southeast 1 1 8,000 -667 Descending FlightAware UK
Fri 10:28:09 AM 56.2435 -5.3619 121° Southeast 1 1 7,800 -667 Descending FlightAware UK
Fri 10:28:27 AM 56.2355 -5.3378 121° Southeast 1 1 7,600 -667 Descending FlightAware UK
Fri 10:28:45 AM 56.2271 -5.3147 123° Southeast 1 1 7,400 -833 Descending FlightAware UK
Fri 10:29:03 AM 56.2179 -5.2927 127° Southeast 1 1 7,100 -667 Descending FlightAware UK
Fri 10:29:21 AM 56.2088 -5.2709 127° Southeast 1 1 7,000 -333 Descending FlightAware UK
Fri 10:29:39 AM 56.2004 -5.2511 127° Southeast 1 1 6,900  Descending FlightAware UK
Fri 10:29:57 AM 56.1930 -5.2313 124° Southeast 1 1 7,000 167 Climbing FlightAware UK
Fri 10:30:15 AM 56.1854 -5.2119 125° Southeast 1 1 7,000  Level FlightAware UK
Fri 10:30:33 AM 56.1781 -5.1920 124° Southeast 1 1 7,000  Level FlightAware UK
Fri 10:30:51 AM 56.1708 -5.1716 123° Southeast 1 1 7,000 -143 Level FlightAware UK
Fri 10:31:15 AM 56.1591 -5.1462 130° Southeast 1 1 6,900 -143 Descending FlightAware UK
Fri 10:31:33 AM 56.1518 -5.1253 122° Southeast 1 1 6,900  Level FlightAware UK
Fri 10:31:51 AM 56.1431 -5.1066 130° Southeast 1 1 6,900  Level FlightAware UK
Fri 10:32:09 AM 56.1345 -5.0880 129° Southeast 1 1 6,900 -167 Level FlightAware UK
Fri 10:32:27 AM 56.1266 -5.0681 126° Southeast 1 1 6,800  Descending FlightAware UK
Fri 10:32:45 AM 56.1183 -5.0484 127° Southeast 1 1 6,900 333 Climbing FlightAware UK
Fri 10:33:03 AM 56.1099 -5.0287 127° Southeast 1 1 7,000 167 Climbing FlightAware UK
Fri 10:33:21 AM 56.1017 -5.0088 126° Southeast 1 1 7,000 -250 Level FlightAware UK
Fri 10:33:51 AM 56.0881 -4.9754 126° Southeast 1 1 6,800 -500 Descending FlightAware UK
Fri 10:34:09 AM 56.0794 -4.9553 128° Southeast 1 1 6,600 -500 Descending FlightAware UK
Fri 10:34:27 AM 56.0703 -4.9343 128° Southeast 1 1 6,500 -500 Descending FlightAware UK
Fri 10:34:45 AM 56.0616 -4.9140 127° Southeast 1 1 6,300 -667 Descending FlightAware UK
Fri 10:35:03 AM 56.0530 -4.8928 126° Southeast 1 1 6,100 -833 Descending FlightAware UK
Fri 10:35:21 AM 56.0440 -4.8721 128° Southeast 1 1 5,800 -714 Descending FlightAware UK
Fri 10:35:45 AM 56.0315 -4.8452 130° Southeast 1 1 5,600 -571 Descending FlightAware UK
Fri 10:36:03 AM 56.0199 -4.8310 145° Southeast 1 1 5,400 -667 Descending FlightAware UK
Fri 10:36:21 AM 56.0060 -4.8238 164° South 1 1 5,200 -667 Descending FlightAware UK
Fri 10:36:39 AM 55.9928 -4.8153 160° South 1 1 5,000 -500 Descending FlightAware UK
Fri 10:36:57 AM 55.9794 -4.8074 162° South 1 1 4,900 -333 Descending FlightAware UK
Fri 10:37:15 AM 55.9658 -4.8000 163° South 1 1 4,800 -167 Descending FlightAware UK
Fri 10:37:33 AM 55.9523 -4.7923 162° South 1 1 4,800  Level FlightAware UK
Fri 10:37:51 AM 55.9390 -4.7849 163° South 1 1 4,800  Level FlightAware UK
Fri 10:38:09 AM 55.9265 -4.7777 162° South 1 1 4,800  Level FlightAware UK
Fri 10:38:27 AM 55.9140 -4.7713 164° South 1 1 4,800  Level FlightAware UK
Fri 10:38:45 AM 55.9011 -4.7686 173° South 1 1 4,800  Level FlightAware UK
Fri 10:39:03 AM 55.8882 -4.7652 172° South 1 1 4,800  Level FlightAware UK
Fri 10:39:21 AM 55.8755 -4.7654 180° South 1 1 4,800 167 Level FlightAware UK
Fri 10:39:39 AM 55.8662 -4.7784 218° Southwest 1 1 4,900 -125 Climbing FlightAware UK
Fri 10:40:09 AM 55.8505 -4.8037 222° Southwest 1 1 4,700 -125 Descending FlightAware UK
Fri 10:40:27 AM 55.8410 -4.8191 222° Southwest 1 1 4,800 143 Climbing FlightAware UK
Fri 10:40:51 AM 55.8278 -4.8398 221° Southwest 1 1 4,800 143 Level FlightAware UK
Fri 10:41:09 AM 55.8182 -4.8555 222° Southwest 1 1 4,900 167 Climbing FlightAware UK
Fri 10:41:27 AM 55.8087 -4.8710 222° Southwest 1 1 4,900 -167 Level FlightAware UK
Fri 10:41:45 AM 55.7993 -4.8868 224° Southwest 1 1 4,800  Descending FlightAware UK
Fri 10:42:03 AM 55.7897 -4.9024 222° Southwest 1 1 4,900 -167 Climbing FlightAware UK
Fri 10:42:21 AM 55.7803 -4.9178 223° Southwest 1 1 4,700 -167 Descending FlightAware UK
Fri 10:42:39 AM 55.7707 -4.9333 222° Southwest 1 1 4,800 333 Climbing FlightAware UK
Fri 10:42:57 AM 55.7579 -4.9394 195° South 1 1 4,900  Climbing FlightAware UK
Fri 10:43:15 AM 55.7455 -4.9291 155° Southeast 1 1 4,800 -167 Descending FlightAware UK
Fri 10:43:33 AM 55.7379 -4.9090 124° Southeast 1 1 4,800  Level FlightAware UK
Fri 10:43:51 AM 55.7304 -4.8891 124° Southeast 1 1 4,800  Level FlightAware UK
Fri 10:44:09 AM 55.7233 -4.8692 123° Southeast 1 1 4,800  Level FlightAware UK
Fri 10:44:27 AM 55.7161 -4.8490 122° Southeast 1 1 4,800  Level FlightAware UK
Fri 10:44:45 AM 55.7092 -4.8289 122° Southeast 1 1 4,800 -500 Level FlightAware UK
Fri 10:45:03 AM 55.7022 -4.8064 119° Southeast 1 1 4,500 -1,000 Descending FlightAware UK
Fri 10:45:21 AM 55.6944 -4.7848 123° Southeast 1 1 4,200 -833 Descending FlightAware UK
Fri 10:45:39 AM 55.6904 -4.7605 106° East 1 1 4,000 -667 Descending FlightAware UK
Fri 10:45:57 AM 55.6936 -4.7369 77° East 1 1 3,800 -500 Descending FlightAware UK
Fri 10:46:15 AM 55.7033 -4.7213 42° Northeast 1 1 3,700 -500 Descending FlightAware UK
Fri 10:46:33 AM 55.7145 -4.7094 31° Northeast 1 1 3,500 -833 Descending FlightAware UK
Fri 10:46:51 AM 55.7236 -4.6930 46° Northeast 1 1 3,200 -833 Descending FlightAware UK
Fri 10:47:09 AM 55.7343 -4.6808 33° Northeast 1 1 3,000 -571 Descending FlightAware UK
Fri 10:47:33 AM 55.7457 -4.6613 44° Northeast 1 1 2,800 -429 Descending FlightAware UK
Fri 10:47:51 AM 55.7530 -4.6459 50° Northeast 1 1 2,700 -333 Descending FlightAware UK
Fri 10:48:09 AM 55.7617 -4.6323 41° Northeast 1 1 2,600 -333 Descending FlightAware UK
Fri 10:48:27 AM 55.7707 -4.6189 40° Northeast 1 1 2,500 -500 Descending FlightAware UK
Fri 10:48:45 AM 55.7797 -4.6046 42° Northeast 1 1 2,300 -800 Descending FlightAware UK
Fri 10:49:57 AM 55.8128 -4.5444 46° Northeast 1 1 1,300 -688 Descending FlightAware UK
Fri 10:50:21 AM 55.8198 -4.5280 53° Northeast 1 1 1,200 -500 Descending FlightAware UK
Fri 10:50:45 AM 55.8271 -4.5161 42° Northeast 1 1 900 -571 Descending FlightAware UK
Fri 10:51:03 AM 55.8317 -4.5080 44° Northeast 1 1 800 -333 Descending FlightAware UK
Fri 10:51:21 AM 55.8362 -4.4992 48° Northeast 1 1 700 -500 Descending FlightAware UK
Fri 10:51:39 AM 55.8410 -4.4903 46° Northeast 1 1 500 -571 Descending FlightAware UK
Fri 10:52:03 AM 55.8477 -4.4787 44° Northeast 1 1 300 -429 Descending FlightAware UK
Fri 10:52:21 AM 55.8525 -4.4697 46° Northeast 1 1 200 -333 Descending FlightAware UK

Login

Don't have an account? Register now (free) for customized features, flight alerts, and more!